La Sardane — FO4883 — position and weather

sailwx.info

Track history (hours):
 
Tides and Currents Weather Stations Pressure Air Temp Water Temp Dewpoint Dewpoint Depression Visibility Wind Speed Wind Dir Waves Ship Positions

La Sardane

Last reported at 2018-Jan-19 13:58 UTC. Time now 2018-Jan-22 08:50 UTC.
Position N 47°49' W 004°23'.

Length 16 m.

Type: Fishing. MMSI: 227318010.

Date/timePositionNaut miles runAvg speedWind from/ knotsBaromVisibWave heightAir tempDewpointWater temp
2018-Jan-19 13:58N 47°49' W 004°23'0 0.0
2018-Jan-18 17:38N 47°49' W 004°23'  
2018-Jan-12 01:40N 48°06' W 004°19'0 0.0
2018-Jan-12 01:28N 48°06' W 004°19'0 0.0
2018-Jan-12 00:58N 48°06' W 004°19'0 0.0
2018-Jan-12 00:28N 48°06' W 004°19'0 0.0
2018-Jan-12 00:00N 48°06' W 004°19'1 1.7
2018-Jan-11 23:29N 48°06' W 004°18'0 0.5
2018-Jan-11 22:56N 48°06' W 004°18'0 0.1
2018-Jan-11 22:30N 48°06' W 004°18'0 0.5
2018-Jan-11 22:00N 48°07' W 004°18'1 1.4
2018-Jan-11 21:30N 48°07' W 004°18'0 1.0
2018-Jan-11 21:00N 48°07' W 004°19'4 7.8
2018-Jan-11 20:31N 48°09' W 004°23'3 6.6
2018-Jan-11 20:00N 48°12' W 004°27'0 0.2
2018-Jan-11 19:27N 48°12' W 004°27'0 0.1
2018-Jan-11 19:01N 48°12' W 004°27'4 8.6
2018-Jan-11 18:30N 48°09' W 004°32'4 7.6
2018-Jan-11 18:00N 48°09' W 004°37'4 8.8
2018-Jan-11 17:30N 48°13' W 004°41'2 3.4
2018-Jan-11 17:01N 48°14' W 004°40'2 4.3
2018-Jan-11 16:30N 48°12' W 004°40'5 9.2
2018-Jan-11 16:01N 48°10' W 004°34'5 9.2
2018-Jan-11 15:30N 48°09' W 004°27'4 8.7
2018-Jan-11 15:00N 48°08' W 004°21'2 3.6
2018-Jan-11 14:27N 48°06' W 004°20'0 0.0
2018-Jan-10 19:52N 48°06' W 004°20'1 3.9
2018-Jan-10 19:30N 48°07' W 004°21'4 8.9
2018-Jan-10 19:00N 48°08' W 004°27'5 9.2
2018-Jan-10 18:30N 48°08' W 004°34'4 8.8
2018-Jan-10 18:00N 48°09' W 004°40'4 7.0
2018-Jan-10 17:30N 48°08' W 004°35'5 9.0
2018-Jan-10 17:01N 48°06' W 004°30'0 0.6
2018-Jan-10 16:28N 48°06' W 004°29'1 1.6
2018-Jan-10 16:00N 48°06' W 004°28'4 7.9
2018-Jan-10 15:30N 48°07' W 004°22'1 2.5
2018-Jan-10 15:00N 48°07' W 004°21'0 1.0
2018-Jan-10 14:30N 48°07' W 004°20'1 2.8
2018-Jan-10 14:00N 48°06' W 004°20'0 0.0
2018-Jan-10 11:40N 48°06' W 004°20'0 0.0
2018-Jan-10 11:28N 48°06' W 004°20'0 0.0
2018-Jan-09 21:05N 48°06' W 004°20'0 0.1
2018-Jan-09 20:59N 48°06' W 004°20'2 3.7
2018-Jan-09 20:31N 48°07' W 004°21'3 5.6
2018-Jan-09 20:00N 48°10' W 004°24'4 7.7
2018-Jan-09 19:30N 48°11' W 004°29'4 8.4
2018-Jan-09 19:00N 48°09' W 004°33'3 6.3
2018-Jan-09 18:30N 48°08' W 004°38'2 3.9
2018-Jan-09 18:01N 48°08' W 004°35'3 5.9
2018-Jan-09 17:30N 48°05' W 004°36'3 5.9
2018-Jan-09 17:00N 48°06' W 004°32'4 8.2
2018-Jan-09 16:30N 48°08' W 004°26'4 8.6
2018-Jan-09 16:00N 48°07' W 004°20'2 3.0
2018-Jan-09 15:28N 48°06' W 004°19'0 0.0
2018-Jan-09 14:58N 48°06' W 004°19'0 0.0
2018-Jan-09 14:30N 48°06' W 004°19'  
Track history (hours):
 
Tides and Currents Weather Stations Pressure Air Temp Water Temp Dewpoint Dewpoint Depression Visibility Wind Speed Wind Dir Waves Ship Positions

La Sardane

Last reported at 2018-Jan-19 13:58 UTC. Time now 2018-Jan-22 08:50 UTC.
Position N 47°49' W 004°23'.

Length 16 m.

Type: Fishing. MMSI: 227318010.

Date/timePositionNaut miles runAvg speedWind from/ knotsBaromVisibWave heightAir tempDewpointWater temp
2018-Jan-19 13:58N 47°49' W 004°23'0 0.0
2018-Jan-18 17:38N 47°49' W 004°23'  
2018-Jan-12 01:40N 48°06' W 004°19'0 0.0
2018-Jan-12 01:28N 48°06' W 004°19'0 0.0
2018-Jan-12 00:58N 48°06' W 004°19'0 0.0
2018-Jan-12 00:28N 48°06' W 004°19'0 0.0
2018-Jan-12 00:00N 48°06' W 004°19'1 1.7
2018-Jan-11 23:29N 48°06' W 004°18'0 0.5
2018-Jan-11 22:56N 48°06' W 004°18'0 0.1
2018-Jan-11 22:30N 48°06' W 004°18'0 0.5
2018-Jan-11 22:00N 48°07' W 004°18'1 1.4
2018-Jan-11 21:30N 48°07' W 004°18'0 1.0
2018-Jan-11 21:00N 48°07' W 004°19'4 7.8
2018-Jan-11 20:31N 48°09' W 004°23'3 6.6
2018-Jan-11 20:00N 48°12' W 004°27'0 0.2
2018-Jan-11 19:27N 48°12' W 004°27'0 0.1
2018-Jan-11 19:01N 48°12' W 004°27'4 8.6
2018-Jan-11 18:30N 48°09' W 004°32'4 7.6
2018-Jan-11 18:00N 48°09' W 004°37'4 8.8
2018-Jan-11 17:30N 48°13' W 004°41'2 3.4
2018-Jan-11 17:01N 48°14' W 004°40'2 4.3
2018-Jan-11 16:30N 48°12' W 004°40'5 9.2
2018-Jan-11 16:01N 48°10' W 004°34'5 9.2
2018-Jan-11 15:30N 48°09' W 004°27'4 8.7
2018-Jan-11 15:00N 48°08' W 004°21'2 3.6
2018-Jan-11 14:27N 48°06' W 004°20'0 0.0
2018-Jan-10 19:52N 48°06' W 004°20'1 3.9
2018-Jan-10 19:30N 48°07' W 004°21'4 8.9
2018-Jan-10 19:00N 48°08' W 004°27'5 9.2
2018-Jan-10 18:30N 48°08' W 004°34'4 8.8
2018-Jan-10 18:00N 48°09' W 004°40'4 7.0
2018-Jan-10 17:30N 48°08' W 004°35'5 9.0
2018-Jan-10 17:01N 48°06' W 004°30'0 0.6
2018-Jan-10 16:28N 48°06' W 004°29'1 1.6
2018-Jan-10 16:00N 48°06' W 004°28'4 7.9
2018-Jan-10 15:30N 48°07' W 004°22'1 2.5
2018-Jan-10 15:00N 48°07' W 004°21'0 1.0
2018-Jan-10 14:30N 48°07' W 004°20'1 2.8
2018-Jan-10 14:00N 48°06' W 004°20'0 0.0
2018-Jan-10 11:40N 48°06' W 004°20'0 0.0
2018-Jan-10 11:28N 48°06' W 004°20'0 0.0
2018-Jan-09 21:05N 48°06' W 004°20'0 0.1
2018-Jan-09 20:59N 48°06' W 004°20'2 3.7
2018-Jan-09 20:31N 48°07' W 004°21'3 5.6
2018-Jan-09 20:00N 48°10' W 004°24'4 7.7
2018-Jan-09 19:30N 48°11' W 004°29'4 8.4
2018-Jan-09 19:00N 48°09' W 004°33'3 6.3
2018-Jan-09 18:30N 48°08' W 004°38'2 3.9
2018-Jan-09 18:01N 48°08' W 004°35'3 5.9
2018-Jan-09 17:30N 48°05' W 004°36'3 5.9
2018-Jan-09 17:00N 48°06' W 004°32'4 8.2
2018-Jan-09 16:30N 48°08' W 004°26'4 8.6
2018-Jan-09 16:00N 48°07' W 004°20'2 3.0
2018-Jan-09 15:28N 48°06' W 004°19'0 0.0
2018-Jan-09 14:58N 48°06' W 004°19'0 0.0
2018-Jan-09 14:30N 48°06' W 004°19'  

Dump ship's entire track history